createdAt,value
2023-01-30T00:01:17.797Z,8.87
2023-01-30T00:03:44.608Z,8.93
2023-01-30T00:06:11.458Z,8.94
2023-01-30T00:08:38.868Z,8.94
2023-01-30T00:11:06.246Z,8.92
2023-01-30T00:13:33.472Z,8.93
2023-01-30T00:16:00.479Z,8.94
2023-01-30T00:18:27.283Z,8.97
2023-01-30T00:21:03.390Z,8.96
2023-01-30T00:23:30.741Z,8.95
2023-01-30T00:25:57.568Z,8.94
2023-01-30T00:28:24.578Z,8.92
2023-01-30T00:30:52.819Z,8.95
2023-01-30T00:33:20.297Z,8.96
2023-01-30T00:35:47.918Z,8.97
2023-01-30T00:38:15.003Z,9.00
2023-01-30T00:40:41.753Z,9.00
2023-01-30T00:43:19.180Z,9.02
2023-01-30T00:45:57.157Z,9.03
2023-01-30T00:48:24.033Z,9.04
2023-01-30T00:50:50.734Z,9.07
2023-01-30T00:53:17.674Z,9.08
2023-01-30T00:55:45.193Z,9.07
2023-01-30T00:58:12.552Z,9.07
2023-01-30T01:00:39.752Z,9.09
2023-01-30T01:03:06.525Z,9.09
2023-01-30T01:05:33.282Z,9.09
2023-01-30T01:07:59.983Z,9.10
2023-01-30T01:10:27.101Z,9.10
2023-01-30T01:12:53.748Z,9.10
2023-01-30T01:15:21.603Z,9.10
2023-01-30T01:17:48.859Z,9.15
2023-01-30T01:20:15.906Z,9.16
2023-01-30T01:22:42.926Z,9.19
2023-01-30T01:25:10.914Z,9.23
2023-01-30T01:27:38.005Z,9.25
2023-01-30T01:30:05.505Z,9.29
2023-01-30T01:32:32.280Z,9.33
2023-01-30T01:34:58.996Z,9.35
2023-01-30T01:37:25.975Z,9.38
2023-01-30T01:40:02.149Z,9.40
2023-01-30T01:42:32.313Z,9.43
2023-01-30T01:45:08.264Z,9.44
2023-01-30T01:47:35.466Z,9.45
2023-01-30T01:50:02.814Z,9.49
2023-01-30T01:52:29.559Z,9.52
2023-01-30T01:55:00.105Z,9.52
2023-01-30T01:57:34.059Z,9.54
2023-01-30T02:00:11.790Z,9.50
2023-01-30T02:02:39.876Z,9.50
2023-01-30T02:05:07.185Z,9.47
2023-01-30T02:07:44.153Z,9.46
2023-01-30T02:10:13.636Z,9.42
2023-01-30T02:12:41.237Z,9.41
2023-01-30T02:15:08.087Z,9.40
2023-01-30T02:17:34.954Z,9.41
2023-01-30T02:20:11.606Z,9.43
2023-01-30T02:22:51.009Z,9.43
2023-01-30T02:25:18.213Z,9.45
2023-01-30T02:27:58.589Z,9.47
2023-01-30T02:30:34.609Z,9.48
2023-01-30T02:33:01.590Z,9.50
2023-01-30T02:35:28.570Z,9.51
2023-01-30T02:38:04.423Z,9.55
2023-01-30T02:40:40.423Z,9.58
2023-01-30T02:43:10.764Z,9.60
2023-01-30T02:45:47.612Z,9.62
2023-01-30T02:48:17.449Z,9.66
2023-01-30T02:50:47.688Z,9.67
2023-01-30T02:53:14.595Z,9.69
2023-01-30T02:55:42.380Z,9.68
2023-01-30T02:58:09.527Z,9.68
2023-01-30T03:00:36.439Z,9.68
2023-01-30T03:03:12.354Z,9.67
2023-01-30T03:05:46.479Z,9.66
2023-01-30T03:08:22.908Z,9.65
2023-01-30T03:10:53.302Z,9.65
2023-01-30T03:13:26.705Z,9.64
2023-01-30T03:15:58.361Z,9.62
2023-01-30T03:18:25.018Z,9.60
2023-01-30T03:20:51.726Z,9.58
2023-01-30T03:23:18.409Z,9.57
2023-01-30T03:25:46.271Z,9.58
2023-01-30T03:28:14.963Z,9.56
2023-01-30T03:30:41.683Z,9.56
2023-01-30T03:33:08.477Z,9.54
2023-01-30T03:35:35.285Z,9.52
2023-01-30T03:38:02.294Z,9.47
2023-01-30T03:40:29.291Z,9.45
2023-01-30T03:42:55.984Z,9.49
2023-01-30T03:45:22.603Z,9.49
2023-01-30T03:47:49.374Z,9.51
2023-01-30T03:50:16.383Z,9.52
2023-01-30T03:52:43.116Z,9.52
2023-01-30T03:55:10.608Z,9.55
2023-01-30T03:57:37.286Z,9.55
2023-01-30T04:00:05.060Z,9.55
2023-01-30T04:02:34.667Z,9.57
2023-01-30T04:05:01.364Z,9.56
2023-01-30T04:07:29.855Z,9.56
2023-01-30T04:09:56.572Z,9.58
2023-01-30T04:12:23.423Z,9.60
2023-01-30T04:14:50.148Z,9.60
2023-01-30T04:17:16.764Z,9.60
2023-01-30T04:19:43.449Z,9.59
2023-01-30T04:22:10.268Z,9.60
2023-01-30T04:24:37.010Z,9.59
2023-01-30T04:27:03.737Z,9.60
2023-01-30T04:29:30.675Z,9.61
2023-01-30T04:31:57.309Z,9.62
2023-01-30T04:34:24.023Z,9.64
2023-01-30T04:36:50.782Z,9.65
2023-01-30T04:39:17.509Z,9.67
2023-01-30T04:41:44.312Z,9.69
2023-01-30T04:44:13.112Z,9.71
2023-01-30T04:46:39.769Z,9.73
2023-01-30T04:49:06.568Z,9.74
2023-01-30T04:51:33.299Z,9.74
2023-01-30T04:53:59.981Z,9.75
2023-01-30T04:56:26.805Z,9.76
2023-01-30T04:58:53.508Z,9.80
2023-01-30T05:01:21.531Z,9.82
2023-01-30T05:03:49.984Z,9.80
2023-01-30T05:06:16.717Z,9.80
2023-01-30T05:08:45.954Z,9.78
2023-01-30T05:11:13.449Z,9.78
2023-01-30T05:13:40.302Z,9.77
2023-01-30T05:16:07.178Z,9.75
2023-01-30T05:18:34.462Z,9.73
2023-01-30T05:21:10.365Z,9.73
2023-01-30T05:23:37.133Z,9.71
2023-01-30T05:26:04.324Z,9.70
2023-01-30T05:28:31.079Z,9.67
2023-01-30T05:31:01.898Z,9.66
2023-01-30T05:33:28.824Z,9.66
2023-01-30T05:35:55.539Z,9.67
2023-01-30T05:38:23.303Z,9.69
2023-01-30T05:41:00.782Z,9.72
2023-01-30T05:43:27.739Z,9.74
2023-01-30T05:45:55.193Z,9.75
2023-01-30T05:48:22.238Z,9.78
2023-01-30T05:50:52.404Z,9.80
2023-01-30T05:53:19.775Z,9.81
2023-01-30T05:55:46.853Z,9.84
2023-01-30T05:58:13.507Z,9.86
2023-01-30T06:00:40.129Z,9.87
2023-01-30T06:03:06.927Z,9.89
2023-01-30T06:05:33.577Z,9.92
2023-01-30T06:08:00.322Z,9.95
2023-01-30T06:10:26.964Z,9.97
2023-01-30T06:12:53.671Z,10.00
2023-01-30T06:15:20.610Z,9.98
2023-01-30T06:17:47.439Z,9.98
2023-01-30T06:20:14.192Z,9.99
2023-01-30T06:22:40.897Z,9.95
2023-01-30T06:25:07.907Z,9.95
2023-01-30T06:27:35.098Z,9.93
2023-01-30T06:30:01.965Z,9.88
2023-01-30T06:32:29.063Z,9.86
2023-01-30T06:34:55.833Z,9.82
2023-01-30T06:37:22.915Z,9.77
2023-01-30T06:39:49.760Z,9.75
2023-01-30T06:42:16.533Z,9.74
2023-01-30T06:44:43.734Z,9.70
2023-01-30T06:47:10.476Z,9.68
2023-01-30T06:49:37.148Z,9.64
2023-01-30T06:52:04.121Z,9.61
2023-01-30T06:54:30.963Z,9.61
2023-01-30T06:56:57.836Z,9.58
2023-01-30T06:59:24.533Z,9.56
2023-01-30T07:01:51.505Z,9.55
2023-01-30T07:04:18.295Z,9.53
2023-01-30T07:06:46.284Z,9.50
2023-01-30T07:09:13.036Z,9.48
2023-01-30T07:11:39.939Z,9.44
2023-01-30T07:14:07.382Z,9.42
2023-01-30T07:16:34.317Z,9.39
2023-01-30T07:19:01.222Z,9.36
2023-01-30T07:21:28.641Z,9.34
2023-01-30T07:23:56.264Z,9.31
2023-01-30T07:26:23.122Z,9.29
2023-01-30T07:28:50.029Z,9.27
2023-01-30T07:31:16.838Z,9.23
2023-01-30T07:33:43.969Z,9.18
2023-01-30T07:36:10.983Z,9.15
2023-01-30T07:38:37.774Z,9.10
2023-01-30T07:41:04.751Z,9.06
2023-01-30T07:43:31.905Z,9.05
2023-01-30T07:46:00.627Z,9.05
2023-01-30T07:48:27.487Z,9.05
2023-01-30T07:50:56.780Z,9.05
2023-01-30T07:53:23.657Z,9.04
2023-01-30T07:55:55.390Z,9.05
2023-01-30T07:58:22.567Z,9.04
2023-01-30T08:00:49.440Z,9.09
2023-01-30T08:03:17.011Z,9.08
2023-01-30T08:05:46.931Z,9.09
2023-01-30T08:08:17.203Z,9.11
2023-01-30T08:10:43.976Z,9.17
2023-01-30T08:13:10.790Z,9.24
2023-01-30T08:15:37.963Z,9.28
2023-01-30T08:18:04.955Z,9.32
2023-01-30T08:20:32.023Z,9.34
2023-01-30T08:22:59.578Z,9.34
2023-01-30T08:25:26.532Z,9.38
2023-01-30T08:27:53.666Z,9.40
2023-01-30T08:30:21.696Z,9.42
2023-01-30T08:32:48.919Z,9.44
2023-01-30T08:35:16.010Z,9.48
2023-01-30T08:37:42.972Z,9.51
2023-01-30T08:40:10.466Z,9.52
2023-01-30T08:42:37.318Z,9.55
2023-01-30T08:45:04.569Z,9.56
2023-01-30T08:47:31.790Z,9.58
2023-01-30T08:49:58.891Z,9.58
2023-01-30T08:52:26.095Z,9.57
2023-01-30T08:54:53.189Z,9.58
2023-01-30T08:57:20.636Z,9.60
2023-01-30T08:59:47.910Z,9.67
2023-01-30T09:02:14.847Z,9.70
2023-01-30T09:04:41.989Z,9.73
2023-01-30T09:07:08.933Z,9.74
2023-01-30T09:09:36.353Z,9.73
2023-01-30T09:12:03.340Z,9.77
2023-01-30T09:14:30.656Z,9.81
2023-01-30T09:16:57.569Z,9.81
2023-01-30T09:19:26.059Z,9.84
2023-01-30T09:21:53.913Z,9.88
2023-01-30T09:24:22.235Z,9.87
2023-01-30T09:26:49.053Z,9.92
2023-01-30T09:29:16.070Z,9.94
2023-01-30T09:31:42.939Z,9.97
2023-01-30T09:34:09.969Z,10.00
2023-01-30T09:36:36.890Z,9.99
2023-01-30T09:39:03.773Z,9.95
2023-01-30T09:41:32.040Z,9.96
2023-01-30T09:44:07.997Z,9.95
2023-01-30T09:46:35.315Z,9.93
2023-01-30T09:49:03.668Z,9.93
2023-01-30T09:51:32.396Z,9.90
2023-01-30T09:54:02.628Z,9.91
2023-01-30T09:56:29.973Z,9.92
2023-01-30T09:58:57.824Z,9.94
2023-01-30T10:01:30.727Z,9.96
2023-01-30T10:04:03.626Z,9.97
2023-01-30T10:06:31.958Z,9.97
2023-01-30T10:09:02.159Z,9.97
2023-01-30T10:11:36.618Z,10.03
2023-01-30T10:14:07.024Z,10.07
2023-01-30T10:16:36.993Z,10.11
2023-01-30T10:19:07.052Z,10.12
2023-01-30T10:21:37.273Z,10.13
2023-01-30T10:24:07.649Z,10.15
2023-01-30T10:26:34.929Z,10.10
2023-01-30T10:29:07.636Z,10.11
2023-01-30T10:31:41.384Z,10.18
2023-01-30T10:34:13.758Z,10.22
2023-01-30T10:36:43.607Z,10.24
2023-01-30T10:39:13.754Z,10.29
2023-01-30T10:41:45.976Z,10.31
2023-01-30T10:44:14.115Z,10.31
2023-01-30T10:46:47.370Z,10.33
2023-01-30T10:49:18.849Z,10.36
2023-01-30T10:51:47.127Z,10.38
2023-01-30T10:54:20.046Z,10.43
2023-01-30T10:56:50.435Z,10.45
2023-01-30T10:59:20.367Z,10.41
2023-01-30T11:01:54.232Z,10.40
2023-01-30T11:04:26.454Z,10.39
2023-01-30T11:06:54.106Z,10.38
2023-01-30T11:09:22.683Z,10.41
2023-01-30T11:11:50.949Z,10.43
2023-01-30T11:14:17.751Z,10.47
2023-01-30T11:16:47.800Z,10.49
2023-01-30T11:19:21.634Z,10.50
2023-01-30T11:21:52.185Z,10.54
2023-01-30T11:24:20.856Z,10.52
2023-01-30T11:26:48.662Z,10.54
2023-01-30T11:29:17.043Z,10.58
2023-01-30T11:31:49.961Z,10.59
2023-01-30T11:34:17.968Z,10.62
2023-01-30T11:36:47.401Z,10.63
2023-01-30T11:39:16.173Z,10.65
2023-01-30T11:41:44.034Z,10.61
2023-01-30T11:44:11.803Z,10.61
2023-01-30T11:46:39.711Z,10.61
2023-01-30T11:49:47.142Z,10.63
2023-01-30T11:51:56.395Z,10.61
2023-01-30T11:54:29.168Z,10.62
2023-01-30T11:57:00.683Z,10.61
2023-01-30T11:59:30.876Z,10.64
2023-01-30T12:02:00.807Z,10.68
2023-01-30T12:04:28.692Z,10.76
2023-01-30T12:06:58.678Z,10.84
2023-01-30T12:09:30.551Z,10.92
2023-01-30T12:11:57.595Z,10.98
2023-01-30T12:14:33.608Z,10.99
2023-01-30T12:17:03.712Z,10.99
2023-01-30T12:19:36.388Z,10.96
2023-01-30T12:22:06.367Z,10.89
2023-01-30T12:24:36.328Z,10.84
2023-01-30T12:27:06.238Z,10.86
2023-01-30T12:29:36.235Z,10.87
2023-01-30T12:32:06.616Z,10.90
2023-01-30T12:34:33.750Z,10.90
2023-01-30T12:37:03.598Z,10.88
2023-01-30T12:39:33.509Z,10.85
2023-01-30T12:42:09.425Z,10.83
2023-01-30T12:44:39.634Z,10.81
2023-01-30T12:47:09.526Z,10.77
2023-01-30T12:49:39.604Z,10.73
2023-01-30T12:52:09.533Z,10.70
2023-01-30T12:54:36.778Z,10.74
2023-01-30T12:57:06.708Z,10.81
2023-01-30T12:59:33.876Z,10.84
2023-01-30T13:02:01.218Z,10.90
2023-01-30T13:04:31.297Z,10.97
2023-01-30T13:07:01.678Z,11.03
2023-01-30T13:09:37.987Z,11.10
2023-01-30T13:12:05.602Z,11.23
2023-01-30T13:14:35.573Z,11.34
2023-01-30T13:17:08.928Z,11.42
2023-01-30T13:19:41.210Z,11.49
2023-01-30T13:22:11.431Z,11.52
2023-01-30T13:24:39.671Z,11.55
2023-01-30T13:27:10.071Z,11.54
2023-01-30T13:29:38.888Z,11.49
2023-01-30T13:32:10.229Z,11.47
2023-01-30T13:34:39.574Z,11.42
2023-01-30T13:37:09.175Z,11.33
2023-01-30T13:39:42.266Z,11.32
2023-01-30T13:42:14.573Z,11.29
2023-01-30T13:44:44.004Z,11.27
2023-01-30T13:47:19.238Z,11.24
2023-01-30T13:49:49.119Z,11.21
2023-01-30T13:52:18.609Z,11.17
2023-01-30T13:54:47.671Z,11.15
2023-01-30T13:57:17.912Z,11.11
2023-01-30T13:59:47.804Z,11.06
2023-01-30T14:02:17.802Z,11.04
2023-01-30T14:04:46.877Z,11.00
2023-01-30T14:07:15.028Z,11.01
2023-01-30T14:09:44.927Z,11.02
2023-01-30T14:12:14.821Z,11.07
2023-01-30T14:14:43.640Z,11.12
2023-01-30T14:17:13.051Z,11.14
2023-01-30T14:19:40.793Z,11.18
2023-01-30T14:22:11.496Z,11.18
2023-01-30T14:24:39.259Z,11.20
2023-01-30T14:27:22.891Z,11.19
2023-01-30T14:29:50.508Z,11.21
2023-01-30T14:32:20.544Z,11.22
2023-01-30T14:34:49.392Z,11.22
2023-01-30T14:37:19.704Z,11.22
2023-01-30T14:39:52.255Z,11.20
2023-01-30T14:42:20.903Z,11.21
2023-01-30T14:44:50.848Z,11.24
2023-01-30T14:47:33.953Z,11.23
2023-01-30T14:50:18.724Z,11.24
2023-01-30T14:52:47.346Z,11.28
2023-01-30T14:55:17.552Z,11.26
2023-01-30T14:57:47.699Z,11.24
2023-01-30T15:00:18.853Z,11.26
2023-01-30T15:02:49.851Z,11.24
2023-01-30T15:05:20.349Z,11.21
2023-01-30T15:07:50.471Z,11.17
2023-01-30T15:10:19.045Z,11.09
2023-01-30T15:12:49.328Z,11.08
2023-01-30T15:15:19.894Z,11.10
2023-01-30T15:17:58.247Z,11.08
2023-01-30T15:20:34.069Z,11.08
2023-01-30T15:23:04.874Z,11.11
2023-01-30T15:25:40.839Z,11.14
2023-01-30T15:28:11.015Z,11.14
2023-01-30T15:30:43.173Z,11.13
2023-01-30T15:33:14.072Z,11.13
2023-01-30T15:35:43.756Z,11.09
2023-01-30T15:38:14.333Z,11.06
2023-01-30T15:40:42.143Z,11.03
2023-01-30T15:43:13.931Z,11.01
2023-01-30T15:45:42.540Z,10.97
2023-01-30T15:48:12.545Z,10.97
2023-01-30T15:50:39.641Z,10.94
2023-01-30T15:53:13.650Z,10.94
2023-01-30T15:55:42.353Z,10.93
2023-01-30T15:58:14.309Z,10.93
2023-01-30T16:00:45.077Z,10.92
2023-01-30T16:03:14.949Z,10.91
2023-01-30T16:05:45.070Z,10.87
2023-01-30T16:08:19.127Z,10.85
2023-01-30T16:10:47.632Z,10.83
2023-01-30T16:13:14.825Z,10.81
2023-01-30T16:15:46.866Z,10.76
2023-01-30T16:18:17.227Z,10.71
2023-01-30T16:23:41.017Z,10.69
2023-01-30T16:26:09.221Z,10.64
2023-01-30T16:28:36.778Z,10.61
2023-01-30T16:31:05.575Z,10.59
2023-01-30T16:33:37.125Z,10.54
2023-01-30T16:36:04.887Z,10.51
2023-01-30T16:38:32.130Z,10.46
2023-01-30T16:40:59.797Z,10.40
2023-01-30T16:43:27.873Z,10.39
2023-01-30T16:45:55.285Z,10.35
2023-01-30T16:48:31.016Z,10.31
2023-01-30T16:50:59.663Z,10.28
2023-01-30T16:53:29.874Z,10.28
2023-01-30T16:55:59.822Z,10.25
2023-01-30T16:58:32.755Z,10.21
2023-01-30T17:01:01.805Z,10.21
2023-01-30T17:03:34.385Z,10.19
2023-01-30T17:06:09.620Z,10.18
2023-01-30T17:08:40.913Z,10.17
2023-01-30T17:11:08.637Z,10.16
2023-01-30T17:13:36.413Z,10.13
2023-01-30T17:16:06.674Z,10.09
2023-01-30T17:18:33.573Z,10.11
2023-01-30T17:21:01.205Z,10.11
2023-01-30T17:23:28.190Z,10.07
2023-01-30T17:25:55.190Z,10.05
2023-01-30T17:28:24.777Z,10.03
2023-01-30T17:30:51.961Z,10.02
2023-01-30T17:33:19.152Z,9.99
2023-01-30T17:35:46.749Z,9.98
2023-01-30T17:38:13.910Z,9.96
2023-01-30T17:40:41.059Z,9.92
2023-01-30T17:43:09.859Z,9.89
2023-01-30T17:45:36.892Z,9.87
2023-01-30T17:48:03.861Z,9.83
2023-01-30T17:50:30.878Z,9.81
2023-01-30T17:52:58.110Z,9.80
2023-01-30T17:55:25.351Z,9.79
2023-01-30T17:57:52.432Z,9.76
2023-01-30T18:00:20.992Z,9.77
2023-01-30T18:02:48.579Z,9.77
2023-01-30T18:05:15.845Z,9.76
2023-01-30T18:07:43.155Z,9.74
2023-01-30T18:10:13.895Z,9.74
2023-01-30T18:12:40.896Z,9.70
2023-01-30T18:15:08.507Z,9.68
2023-01-30T18:17:39.484Z,9.66
2023-01-30T18:20:06.848Z,9.64
2023-01-30T18:22:33.879Z,9.62
2023-01-30T18:25:00.914Z,9.58
2023-01-30T18:27:27.991Z,9.58
2023-01-30T18:29:54.960Z,9.58
2023-01-30T18:32:21.891Z,9.58
2023-01-30T18:34:48.896Z,9.56
2023-01-30T18:37:16.002Z,9.55
2023-01-30T18:39:43.063Z,9.56
2023-01-30T18:42:10.089Z,9.53
2023-01-30T18:44:37.152Z,9.51
2023-01-30T18:47:04.219Z,9.49
2023-01-30T18:49:31.192Z,9.47
2023-01-30T18:51:58.178Z,9.44
2023-01-30T18:54:25.268Z,9.42
2023-01-30T18:56:52.260Z,9.40
2023-01-30T18:59:19.175Z,9.38
2023-01-30T19:01:47.109Z,9.38
2023-01-30T19:04:14.180Z,9.37
2023-01-30T19:06:43.759Z,9.35
2023-01-30T19:09:13.386Z,9.36
2023-01-30T19:11:43.402Z,9.36
2023-01-30T19:14:10.675Z,9.36
2023-01-30T19:16:38.817Z,9.34
2023-01-30T19:19:06.378Z,9.33
2023-01-30T19:21:33.887Z,9.31
2023-01-30T19:24:03.611Z,9.28
2023-01-30T19:26:31.148Z,9.23
2023-01-30T19:28:58.501Z,9.21
2023-01-30T19:31:26.104Z,9.19
2023-01-30T19:33:54.731Z,9.17
2023-01-30T19:36:22.341Z,9.13
2023-01-30T19:38:51.655Z,9.11
2023-01-30T19:41:20.267Z,9.09
2023-01-30T19:43:47.930Z,9.09
2023-01-30T19:46:15.800Z,9.06
2023-01-30T19:48:43.983Z,9.04
2023-01-30T19:51:13.841Z,9.03
2023-01-30T19:53:41.639Z,9.02
2023-01-30T19:56:09.324Z,9.02
2023-01-30T19:58:37.203Z,9.02
2023-01-30T20:01:04.941Z,8.99
2023-01-30T20:03:32.428Z,8.98
2023-01-30T20:06:02.492Z,8.97
2023-01-30T20:08:32.623Z,8.98
2023-01-30T20:11:01.711Z,8.98
2023-01-30T20:13:29.210Z,8.95
2023-01-30T20:15:58.081Z,8.95
2023-01-30T20:18:25.032Z,8.94
2023-01-30T20:20:52.046Z,8.94
2023-01-30T20:23:19.161Z,8.90
2023-01-30T20:25:46.853Z,8.87
2023-01-30T20:28:14.139Z,8.87
2023-01-30T20:30:41.827Z,8.84
2023-01-30T20:33:09.132Z,8.81
2023-01-30T20:35:36.070Z,8.78
2023-01-30T20:38:03.188Z,8.76
2023-01-30T20:40:30.132Z,8.74
2023-01-30T20:42:58.140Z,8.73
2023-01-30T20:45:25.098Z,8.68
2023-01-30T20:47:51.986Z,8.66
2023-01-30T20:50:20.526Z,8.65
2023-01-30T20:52:49.000Z,8.63
2023-01-30T20:55:16.399Z,8.61
2023-01-30T20:57:44.080Z,8.58
2023-01-30T21:00:12.380Z,8.57
2023-01-30T21:02:39.402Z,8.53
2023-01-30T21:05:08.266Z,8.52
2023-01-30T21:07:38.261Z,8.49
2023-01-30T21:10:05.556Z,8.46
2023-01-30T21:12:32.593Z,8.44
2023-01-30T21:14:59.713Z,8.41
2023-01-30T21:17:28.081Z,8.40
2023-01-30T21:19:54.951Z,8.38
2023-01-30T21:22:21.958Z,8.35
2023-01-30T21:24:48.994Z,8.34
2023-01-30T21:27:16.103Z,8.31
2023-01-30T21:29:43.008Z,8.29
2023-01-30T21:32:09.939Z,8.27
2023-01-30T21:34:37.052Z,8.26
2023-01-30T21:37:07.031Z,8.25
2023-01-30T21:39:38.125Z,8.25
2023-01-30T21:42:08.555Z,8.24
2023-01-30T21:44:38.188Z,8.21
2023-01-30T21:47:06.025Z,8.16
2023-01-30T21:49:33.589Z,8.15
2023-01-30T21:52:00.755Z,8.14
2023-01-30T21:54:27.677Z,8.15
2023-01-30T21:56:54.873Z,8.13
2023-01-30T21:59:21.805Z,8.12
2023-01-30T22:01:48.902Z,8.12
2023-01-30T22:04:16.215Z,8.08
2023-01-30T22:06:43.719Z,8.04
2023-01-30T22:09:13.242Z,8.01
2023-01-30T22:11:40.192Z,8.02
2023-01-30T22:14:07.125Z,7.99
2023-01-30T22:16:34.862Z,7.97
2023-01-30T22:19:03.141Z,7.94
2023-01-30T22:21:32.554Z,7.94
2023-01-30T22:23:59.472Z,7.94
2023-01-30T22:26:27.015Z,7.94
2023-01-30T22:28:56.369Z,7.93
2023-01-30T22:31:23.655Z,7.93
2023-01-30T22:33:52.145Z,7.94
2023-01-30T22:36:19.162Z,7.92
2023-01-30T22:38:46.917Z,7.91
2023-01-30T22:41:16.004Z,7.91
2023-01-30T22:43:45.402Z,7.90
2023-01-30T22:46:12.987Z,7.90
2023-01-30T22:48:40.800Z,7.91
2023-01-30T22:51:09.221Z,7.92
2023-01-30T22:53:37.410Z,7.92
2023-01-30T22:56:05.870Z,7.89
2023-01-30T22:58:32.843Z,7.92
2023-01-30T23:01:02.751Z,7.91
2023-01-30T23:03:29.570Z,7.90
2023-01-30T23:05:58.895Z,7.87
2023-01-30T23:08:30.728Z,7.81
2023-01-30T23:10:58.658Z,7.79
2023-01-30T23:13:29.982Z,7.78
2023-01-30T23:15:59.930Z,7.76
2023-01-30T23:18:30.161Z,7.76
2023-01-30T23:20:57.643Z,7.76
2023-01-30T23:23:24.470Z,7.77
2023-01-30T23:25:51.764Z,7.78
2023-01-30T23:28:18.982Z,7.79
2023-01-30T23:30:46.027Z,7.77
2023-01-30T23:33:12.912Z,7.75
2023-01-30T23:35:40.240Z,7.71
2023-01-30T23:38:11.487Z,7.69
2023-01-30T23:40:38.753Z,7.68
2023-01-30T23:43:05.700Z,7.67
2023-01-30T23:45:32.663Z,7.67
2023-01-30T23:47:59.821Z,7.68
2023-01-30T23:50:26.808Z,7.69
2023-01-30T23:52:53.770Z,7.67
2023-01-30T23:55:21.167Z,7.66
2023-01-30T23:57:48.451Z,7.66
